Time;durP1;ratioP1;P1;durP2;ratioP2;P2;SDS_P1;SDS_P2;PMS_P1;PMS_P2;Temp;Humidity;BMP_temperature;BMP_pressure;BME280_temperature;BME280_humidity;BME280_pressure;Samples;Min_cycle;Max_cycle;Signal;HPM_P1;HPM_P2
2023/01/20 00:00:40;;;;;;;4.72;1.33;;;15.50;59.00;;;;;;5041979;28;20084;-69
2023/01/20 00:03:06;;;;;;;1.85;1.13;;;15.50;58.60;;;;;;5042189;28;20545;-70
2023/01/20 00:05:32;;;;;;;2.97;1.33;;;15.60;58.60;;;;;;5041995;28;20068;-69
2023/01/20 00:07:58;;;;;;;2.03;1.17;;;15.60;58.40;;;;;;5042047;28;20041;-70
2023/01/20 00:10:23;;;;;;;1.85;1.23;;;15.60;58.20;;;;;;5041954;28;20059;-69
2023/01/20 00:12:49;;;;;;;2.55;1.30;;;15.60;58.20;;;;;;5041889;28;20029;-70
2023/01/20 00:15:15;;;;;;;2.20;1.27;;;15.60;58.00;;;;;;5041789;28;20029;-69
2023/01/20 00:17:41;;;;;;;1.70;1.50;;;15.50;58.20;;;;;;5041679;28;20305;-69
2023/01/20 00:20:07;;;;;;;5.28;1.65;;;15.50;58.30;;;;;;5041743;28;20017;-69
2023/01/20 00:22:33;;;;;;;3.63;1.20;;;15.50;58.30;;;;;;5041785;28;20268;-69
2023/01/20 00:24:59;;;;;;;1.30;1.10;;;15.40;58.40;;;;;;5041635;28;20021;-70
2023/01/20 00:27:26;;;;;;;2.15;0.90;;;15.40;58.60;;;;;;5041629;28;20360;-69
2023/01/20 00:29:52;;;;;;;1.92;1.02;;;15.30;58.70;;;;;;5041515;28;20053;-70
2023/01/20 00:32:18;;;;;;;2.35;1.42;;;15.30;58.80;;;;;;5041470;28;20033;-69
2023/01/20 00:34:44;;;;;;;1.95;1.20;;;15.30;58.80;;;;;;5041472;28;20025;-67
2023/01/20 00:37:10;;;;;;;2.33;1.40;;;15.20;58.70;;;;;;5041325;28;20037;-69
2023/01/20 00:39:36;;;;;;;4.32;1.30;;;15.20;58.80;;;;;;5041351;28;20634;-69
2023/01/20 00:42:02;;;;;;;3.22;1.20;;;15.20;58.90;;;;;;5041269;28;20092;-69
2023/01/20 00:44:27;;;;;;;4.65;1.30;;;15.20;58.80;;;;;;5041300;28;20080;-70
2023/01/20 00:46:53;;;;;;;1.33;1.23;;;15.10;58.80;;;;;;5041215;28;20190;-70
2023/01/20 00:49:19;;;;;;;2.28;1.25;;;15.10;58.90;;;;;;5041206;28;20325;-70
2023/01/20 00:51:45;;;;;;;1.15;0.90;;;15.10;58.90;;;;;;5041120;28;20033;-69
2023/01/20 00:54:11;;;;;;;2.88;1.35;;;15.10;59.00;;;;;;5056508;28;20037;-68
2023/01/20 00:56:36;;;;;;;2.70;1.92;;;15.10;59.00;;;;;;5041034;28;20029;-70
2023/01/20 00:59:02;;;;;;;2.03;1.33;;;15.00;59.00;;;;;;5040986;28;20033;-68
2023/01/20 01:01:28;;;;;;;2.85;1.13;;;15.00;59.00;;;;;;5040958;28;20041;-70
2023/01/20 01:03:54;;;;;;;5.85;1.17;;;15.00;59.10;;;;;;5040986;28;20171;-69
2023/01/20 01:06:20;;;;;;;2.15;1.00;;;15.00;59.10;;;;;;5040837;28;20104;-69
2023/01/20 01:08:45;;;;;;;3.05;1.95;;;15.10;59.10;;;;;;5040927;28;20037;-69
2023/01/20 01:11:12;;;;;;;1.55;1.20;;;15.20;59.00;;;;;;5056153;28;20033;-69
2023/01/20 01:13:38;;;;;;;2.00;1.42;;;15.20;59.00;;;;;;5040697;28;20379;-68
2023/01/20 01:16:12;;;;;;;1.60;1.30;;;15.30;58.80;;;;;;5040573;28;20067;-69
2023/01/20 01:18:38;;;;;;;1.67;1.20;;;15.40;58.60;;;;;;5040595;28;20360;-69
2023/01/20 01:21:09;;;;;;;1.92;1.40;;;15.50;58.40;;;;;;5040537;28;20037;-70
2023/01/20 01:23:35;;;;;;;2.13;1.17;;;15.50;58.30;;;;;;5040554;28;20028;-69
2023/01/20 01:26:01;;;;;;;2.13;1.05;;;15.50;58.30;;;;;;5040628;28;20029;-70
2023/01/20 01:28:27;;;;;;;1.05;0.95;;;15.50;58.20;;;;;;5040449;28;20036;-69
2023/01/20 01:30:53;;;;;;;1.50;1.20;;;15.50;58.10;;;;;;5040037;28;20605;-70
2023/01/20 01:33:19;;;;;;;3.20;1.10;;;15.50;58.10;;;;;;5040400;28;20040;-70
2023/01/20 01:35:54;;;;;;;2.08;1.30;;;15.40;58.30;;;;;;5040371;28;20375;-70
2023/01/20 01:38:20;;;;;;;2.00;1.40;;;15.40;58.30;;;;;;5040263;28;20415;-69
2023/01/20 01:40:51;;;;;;;1.75;1.40;;;15.30;58.40;;;;;;5040284;28;20030;-69
2023/01/20 01:43:23;;;;;;;1.65;1.20;;;15.30;58.30;;;;;;5040299;28;20024;-69
2023/01/20 01:45:49;;;;;;;2.35;1.23;;;15.20;58.40;;;;;;5040227;28;20032;-69
2023/01/20 01:48:17;;;;;;;1.55;1.23;;;15.20;58.50;;;;;;5040281;28;20033;-69
2023/01/20 01:51:01;;;;;;;2.20;1.42;;;15.20;58.60;;;;;;5040236;28;20096;-69
2023/01/20 01:53:29;;;;;;;2.60;1.25;;;15.10;58.60;;;;;;5040332;28;20029;-68
2023/01/20 01:55:58;;;;;;;2.70;1.42;;;15.10;58.70;;;;;;5040148;28;20029;-69
2023/01/20 01:58:28;;;;;;;3.03;1.48;;;15.10;58.90;;;;;;5040104;28;20044;-69
2023/01/20 02:00:54;;;;;;;1.42;1.17;;;15.00;59.00;;;;;;5040476;28;20450;-69
2023/01/20 02:03:21;;;;;;;3.58;1.17;;;15.00;59.00;;;;;;5040181;28;20074;-69
2023/01/20 02:05:51;;;;;;;2.50;1.10;;;15.10;59.10;;;;;;5040035;28;20042;-68
2023/01/20 02:08:18;;;;;;;1.17;0.98;;;15.10;58.90;;;;;;5040086;28;20093;-69
2023/01/20 02:10:44;;;;;;;1.50;1.13;;;15.10;59.10;;;;;;5039944;28;20036;-68
2023/01/20 02:13:10;;;;;;;2.45;1.38;;;15.10;59.00;;;;;;5039974;28;20025;-69
2023/01/20 02:16:08;;;;;;;2.22;1.38;;;15.00;58.90;;;;;;5040058;28;20040;-68
2023/01/20 02:18:45;;;;;;;1.85;1.30;;;15.00;59.10;;;;;;5040014;28;20068;-69
2023/01/20 02:21:20;;;;;;;2.15;1.33;;;15.00;59.10;;;;;;5040010;28;20033;-67
2023/01/20 02:23:54;;;;;;;1.63;1.10;;;15.00;59.00;;;;;;5039942;28;20029;-68
2023/01/20 02:26:42;;;;;;;1.55;1.40;;;15.00;59.10;;;;;;5039925;28;20029;-69
2023/01/20 02:29:26;;;;;;;1.80;1.35;;;15.00;59.10;;;;;;5039889;28;20045;-68
2023/01/20 02:32:08;;;;;;;1.30;1.10;;;15.10;59.20;;;;;;5038531;28;20275;-68
2023/01/20 02:34:48;;;;;;;1.55;1.30;;;15.20;59.00;;;;;;5039945;28;20556;-68
2023/01/20 02:37:25;;;;;;;2.20;1.38;;;15.30;58.90;;;;;;5039724;28;20044;-68
2023/01/20 02:40:18;;;;;;;1.45;1.00;;;15.40;58.70;;;;;;5039650;28;20022;-68
2023/01/20 02:43:04;;;;;;;3.35;1.17;;;15.40;58.50;;;;;;5040983;28;20021;-67
2023/01/20 02:45:51;;;;;;;1.35;0.82;;;15.40;58.40;;;;;;5043558;28;20017;-69
2023/01/20 02:48:22;;;;;;;1.80;1.10;;;15.50;58.30;;;;;;5043574;28;20100;-70
2023/01/20 02:51:13;;;;;;;1.80;1.02;;;15.50;58.20;;;;;;5043476;28;20066;-69
2023/01/20 02:54:07;;;;;;;1.42;1.00;;;15.50;58.20;;;;;;5043516;28;20236;-69
2023/01/20 02:56:35;;;;;;;1.20;1.00;;;15.40;58.20;;;;;;5040502;28;20033;-70
2023/01/20 02:59:06;;;;;;;2.05;0.98;;;15.40;58.40;;;;;;5043159;28;20029;-67
2023/01/20 03:01:41;;;;;;;1.67;1.00;;;15.30;58.30;;;;;;5043203;28;20375;-67
2023/01/20 03:04:11;;;;;;;2.28;1.20;;;15.30;58.40;;;;;;5043176;28;20029;-68
2023/01/20 03:06:45;;;;;;;1.58;1.20;;;15.20;58.50;;;;;;5042983;28;20119;-69
2023/01/20 03:09:14;;;;;;;1.17;1.05;;;15.20;58.60;;;;;;5043090;28;20032;-70
2023/01/20 03:11:46;;;;;;;1.38;1.27;;;15.10;58.70;;;;;;5043042;28;20361;-69
2023/01/20 03:14:14;;;;;;;1.80;1.17;;;15.10;58.60;;;;;;5042975;28;20139;-68
2023/01/20 03:16:40;;;;;;;1.67;1.45;;;15.00;58.60;;;;;;5042955;28;20017;-69
2023/01/20 03:19:06;;;;;;;1.33;1.20;;;15.10;58.60;;;;;;5042816;28;20100;-68
2023/01/20 03:21:33;;;;;;;1.33;1.23;;;15.00;58.70;;;;;;5042780;28;20025;-69
2023/01/20 03:24:01;;;;;;;1.60;1.10;;;15.00;58.80;;;;;;5042740;28;20339;-69
2023/01/20 03:26:29;;;;;;;1.50;1.10;;;15.00;58.90;;;;;;5042666;28;20092;-69
2023/01/20 03:28:55;;;;;;;1.65;1.23;;;14.90;58.70;;;;;;5042651;28;20276;-69
2023/01/20 03:31:26;;;;;;;1.60;1.20;;;14.90;58.90;;;;;;5042630;28;20028;-69
2023/01/20 03:33:56;;;;;;;1.40;1.23;;;14.90;59.00;;;;;;5042537;28;20029;-68
2023/01/20 03:36:25;;;;;;;1.70;1.30;;;14.90;58.80;;;;;;5042563;28;20396;-69
2023/01/20 03:38:51;;;;;;;1.25;0.90;;;15.00;59.00;;;;;;5042459;28;20025;-68
2023/01/20 03:41:26;;;;;;;1.65;1.25;;;14.90;59.00;;;;;;5042480;28;20100;-69
2023/01/20 03:43:57;;;;;;;2.03;0.95;;;14.90;59.10;;;;;;5042459;28;20241;-67
2023/01/20 03:46:40;;;;;;;1.35;1.13;;;14.90;59.00;;;;;;5042537;28;20029;-69
2023/01/20 03:49:17;;;;;;;1.15;0.77;;;14.90;59.00;;;;;;5042563;28;20210;-70
2023/01/20 03:52:03;;;;;;;1.45;0.88;;;15.00;59.10;;;;;;5041942;28;20037;-68
2023/01/20 03:54:59;;;;;;;1.17;1.05;;;15.10;59.30;;;;;;5042185;28;20067;-69
2023/01/20 03:57:33;;;;;;;1.33;0.80;;;15.10;59.00;;;;;;5042270;28;20017;-69
2023/01/20 04:00:00;;;;;;;1.40;1.30;;;15.20;59.00;;;;;;5042584;28;20022;-67
2023/01/20 04:02:27;;;;;;;1.75;1.23;;;15.30;58.80;;;;;;5042242;28;20084;-67
2023/01/20 04:04:55;;;;;;;1.70;1.38;;;15.30;58.60;;;;;;5042040;28;20268;-70
2023/01/20 04:07:23;;;;;;;1.08;0.88;;;15.40;58.50;;;;;;5041731;28;20045;-68
2023/01/20 04:09:51;;;;;;;;;;;15.40;58.30;;;;;;5042360;28;20030;-70
2023/01/20 04:12:17;;;;;;;1.58;1.02;;;15.40;58.30;;;;;;5041903;28;20146;-69
2023/01/20 04:14:43;;;;;;;1.33;1.10;;;15.40;58.30;;;;;;5041696;28;20226;-69
2023/01/20 04:17:09;;;;;;;1.92;1.10;;;15.40;58.20;;;;;;5041738;28;20088;-68
2023/01/20 04:19:34;;;;;;;1.75;1.30;;;15.30;58.30;;;;;;5041618;28;20096;-70
2023/01/20 04:22:27;;;;;;;1.65;1.27;;;15.30;58.40;;;;;;5041745;28;20029;-70
2023/01/20 04:25:02;;;;;;;1.77;1.10;;;15.20;58.50;;;;;;5037185;28;20093;-68
2023/01/20 04:27:28;;;;;;;1.48;1.30;;;15.10;58.60;;;;;;5041561;28;20053;-69
2023/01/20 04:29:53;;;;;;;1.40;1.00;;;15.10;58.50;;;;;;5041568;28;20030;-69
2023/01/20 04:32:19;;;;;;;1.67;1.30;;;15.10;58.60;;;;;;5041509;28;20025;-69
2023/01/20 04:34:45;;;;;;;1.40;1.30;;;15.10;58.60;;;;;;5041507;28;20393;-69
2023/01/20 04:37:11;;;;;;;1.35;1.05;;;15.10;58.60;;;;;;5041317;28;20049;-68
2023/01/20 04:39:36;;;;;;;1.00;0.88;;;15.00;58.80;;;;;;5041294;28;20694;-69
2023/01/20 04:42:02;;;;;;;1.40;1.20;;;14.90;58.80;;;;;;5041274;28;20355;-69
2023/01/20 04:44:28;;;;;;;0.80;0.80;;;15.00;58.80;;;;;;5041251;28;20029;-67
2023/01/20 04:46:57;;;;;;;1.58;1.30;;;14.90;58.80;;;;;;5041201;28;20025;-69
2023/01/20 04:49:23;;;;;;;1.20;1.05;;;14.80;59.00;;;;;;5041127;28;20063;-69
2023/01/20 04:51:49;;;;;;;1.95;1.35;;;14.90;59.00;;;;;;5041196;28;20328;-69
2023/01/20 04:54:15;;;;;;;1.70;1.40;;;14.90;59.10;;;;;;5041331;28;20029;-70
2023/01/20 04:56:42;;;;;;;1.27;1.17;;;14.90;59.10;;;;;;5041057;28;20313;-69
2023/01/20 04:59:07;;;;;;;1.30;1.00;;;14.90;59.20;;;;;;5040898;28;20025;-68
2023/01/20 05:01:33;;;;;;;1.40;0.95;;;14.90;59.40;;;;;;5040978;28;20025;-70
2023/01/20 05:03:59;;;;;;;1.90;1.10;;;15.00;59.40;;;;;;5040901;28;20094;-70
2023/01/20 05:06:25;;;;;;;1.02;0.82;;;15.10;59.30;;;;;;5040054;28;20057;-70
2023/01/20 05:08:50;;;;;;;1.38;0.93;;;15.20;59.10;;;;;;5039483;28;20100;-68
2023/01/20 05:11:16;;;;;;;1.88;1.08;;;15.20;59.00;;;;;;5040739;28;20246;-70
2023/01/20 05:13:42;;;;;;;1.52;1.02;;;15.30;58.70;;;;;;5040649;28;20128;-69
2023/01/20 05:16:09;;;;;;;2.13;1.27;;;15.40;58.60;;;;;;5040692;28;20036;-68
2023/01/20 05:18:35;;;;;;;1.15;1.05;;;15.40;58.40;;;;;;5040563;28;20025;-70
2023/01/20 05:21:03;;;;;;;1.42;1.25;;;15.40;58.30;;;;;;5040608;28;20276;-68
2023/01/20 05:23:29;;;;;;;1.67;1.00;;;15.40;58.10;;;;;;5040590;28;20028;-69
2023/01/20 05:25:54;;;;;;;1.45;1.30;;;15.40;58.40;;;;;;5040647;28;20084;-69
2023/01/20 05:28:21;;;;;;;1.10;1.00;;;15.30;58.40;;;;;;5040459;28;20048;-69
2023/01/20 05:30:50;;;;;;;1.00;0.90;;;15.20;58.50;;;;;;5040506;28;20037;-70
2023/01/20 05:33:16;;;;;;;1.50;1.02;;;15.20;58.60;;;;;;5040468;28;20048;-68
2023/01/20 05:35:42;;;;;;;1.40;1.10;;;15.20;58.50;;;;;;5040512;28;20040;-68
2023/01/20 05:38:08;;;;;;;1.00;0.90;;;15.10;58.50;;;;;;5040400;28;20372;-70
2023/01/20 05:40:33;;;;;;;1.25;1.10;;;15.10;58.70;;;;;;5040400;28;20036;-68
2023/01/20 05:43:00;;;;;;;0.88;0.80;;;15.10;58.70;;;;;;5040333;28;20028;-69
2023/01/20 05:45:26;;;;;;;1.58;0.95;;;15.10;58.70;;;;;;5040505;28;20416;-69
2023/01/20 05:47:56;;;;;;;1.75;1.10;;;15.00;58.80;;;;;;5040250;28;20057;-69
2023/01/20 05:50:23;;;;;;;1.17;1.05;;;15.00;58.70;;;;;;5040290;28;20080;-69
2023/01/20 05:52:48;;;;;;;1.30;1.02;;;15.00;58.80;;;;;;5040228;28;20029;-68
2023/01/20 05:55:14;;;;;;;2.03;1.15;;;14.90;58.80;;;;;;5040193;28;20458;-68
2023/01/20 05:57:40;;;;;;;1.92;1.50;;;14.90;58.70;;;;;;5055318;28;20052;-68
2023/01/20 06:00:06;;;;;;;2.13;1.15;;;14.90;58.70;;;;;;5055472;28;20029;-68
2023/01/20 06:02:33;;;;;;;1.27;1.17;;;14.80;58.80;;;;;;5040180;28;20025;-69
2023/01/20 06:05:00;;;;;;;1.85;1.10;;;14.80;58.80;;;;;;5040018;28;20026;-68
2023/01/20 06:07:28;;;;;;;1.75;1.10;;;14.80;59.00;;;;;;5040110;28;20020;-68
2023/01/20 06:09:54;;;;;;;1.10;0.95;;;14.80;59.10;;;;;;5040133;28;20036;-68
2023/01/20 06:12:20;;;;;;;1.33;1.10;;;14.90;59.10;;;;;;5040059;28;20026;-69
2023/01/20 06:14:45;;;;;;;1.80;1.00;;;15.00;59.20;;;;;;5040011;28;20029;-68
2023/01/20 06:17:11;;;;;;;1.67;1.38;;;15.10;59.20;;;;;;5041847;28;20044;-69
2023/01/20 06:19:37;;;;;;;1.38;1.20;;;15.10;58.90;;;;;;5043954;28;20049;-67
2023/01/20 06:22:03;;;;;;;1.02;0.90;;;15.20;58.90;;;;;;5059341;28;20244;-69
2023/01/20 06:24:29;;;;;;;1.00;0.90;;;15.30;58.70;;;;;;5043889;28;20082;-71
2023/01/20 06:26:54;;;;;;;0.73;0.73;;;15.30;58.50;;;;;;5043834;28;20321;-69
2023/01/20 06:29:20;;;;;;;2.17;1.02;;;15.40;58.60;;;;;;5043920;28;20053;-69
2023/01/20 06:31:46;;;;;;;1.13;1.02;;;15.40;58.50;;;;;;5043916;28;20041;-69
2023/01/20 06:34:12;;;;;;;2.00;1.20;;;15.40;58.50;;;;;;5043972;28;20229;-69
2023/01/20 06:36:39;;;;;;;1.63;1.05;;;15.30;58.30;;;;;;5043724;28;20096;-68
2023/01/20 06:39:20;;;;;;;1.42;0.80;;;15.30;58.40;;;;;;5000184;28;20064;-70
2023/01/20 06:41:45;;;;;;;1.10;1.00;;;15.20;58.40;;;;;;5043580;28;20025;-69
2023/01/20 06:44:11;;;;;;;1.42;1.00;;;15.20;58.50;;;;;;5043585;28;20067;-68
2023/01/20 06:46:37;;;;;;;1.30;0.95;;;15.10;58.60;;;;;;5043549;28;20096;-68
2023/01/20 06:49:03;;;;;;;1.13;1.00;;;15.10;58.60;;;;;;5043599;28;20056;-70
2023/01/20 06:51:30;;;;;;;1.27;1.17;;;15.00;58.70;;;;;;5043473;28;20075;-69
2023/01/20 06:53:56;;;;;;;1.67;1.55;;;15.00;58.70;;;;;;5043338;28;20036;-69
2023/01/20 06:56:22;;;;;;;1.08;0.93;;;15.00;58.80;;;;;;5043286;28;20013;-68
2023/01/20 06:58:48;;;;;;;1.00;0.90;;;15.00;58.70;;;;;;5043165;28;20036;-68
2023/01/20 07:01:18;;;;;;;1.35;1.00;;;14.90;58.70;;;;;;5043227;28;20377;-68
2023/01/20 07:03:44;;;;;;;2.58;1.48;;;14.90;58.80;;;;;;5058508;28;20021;-69
2023/01/20 07:06:21;;;;;;;1.85;1.00;;;14.90;58.70;;;;;;5042916;28;20053;-68
2023/01/20 07:08:47;;;;;;;1.70;1.27;;;14.90;58.80;;;;;;5043048;28;20032;-68
2023/01/20 07:11:13;;;;;;;2.17;1.30;;;14.90;58.80;;;;;;5042981;28;20049;-69
2023/01/20 07:13:39;;;;;;;1.40;1.13;;;14.80;58.80;;;;;;5042982;28;20028;-69
2023/01/20 07:16:05;;;;;;;1.48;1.05;;;14.80;59.00;;;;;;5042932;28;20056;-67
2023/01/20 07:18:31;;;;;;;0.90;0.90;;;14.80;58.90;;;;;;5042766;28;20033;-69
2023/01/20 07:20:56;;;;;;;1.63;1.08;;;14.90;59.00;;;;;;5042912;28;20092;-68
2023/01/20 07:23:23;;;;;;;1.35;1.10;;;15.00;59.00;;;;;;5042881;28;20329;-69
2023/01/20 07:26:04;;;;;;;1.30;1.20;;;15.10;58.90;;;;;;5042743;28;20354;-68
2023/01/20 07:28:31;;;;;;;1.40;1.02;;;15.10;58.80;;;;;;5042204;28;20101;-69
2023/01/20 07:31:07;;;;;;;1.30;1.20;;;15.20;58.70;;;;;;5042887;28;20021;-69
2023/01/20 07:33:33;;;;;;;0.95;0.80;;;15.20;58.40;;;;;;5042768;28;20037;-68
2023/01/20 07:36:00;;;;;;;1.38;1.10;;;15.20;58.40;;;;;;5042582;28;20029;-69
2023/01/20 07:38:25;;;;;;;0.88;0.80;;;15.30;58.20;;;;;;5042604;28;20021;-69
2023/01/20 07:40:51;;;;;;;1.00;0.90;;;15.30;58.10;;;;;;5042736;28;20051;-69
2023/01/20 07:43:17;;;;;;;2.03;1.30;;;15.40;58.10;;;;;;5041335;28;20333;-69
2023/01/20 07:45:43;;;;;;;1.05;0.98;;;15.40;58.00;;;;;;5042502;28;20217;-69
2023/01/20 07:48:08;;;;;;;2.08;1.42;;;15.30;57.90;;;;;;5042372;28;20029;-67
2023/01/20 07:50:35;;;;;;;1.20;1.02;;;15.30;58.00;;;;;;5042237;28;20025;-69
2023/01/20 07:53:01;;;;;;;1.08;1.00;;;15.20;58.10;;;;;;5040880;28;20195;-70
2023/01/20 07:55:27;;;;;;;3.67;1.30;;;15.10;58.20;;;;;;5042154;28;20102;-67
2023/01/20 07:57:53;;;;;;;2.40;1.15;;;15.10;58.20;;;;;;5042146;28;20033;-69
2023/01/20 08:00:19;;;;;;;1.35;0.95;;;15.10;58.40;;;;;;5042163;28;20021;-69
2023/01/20 08:02:45;;;;;;;1.33;1.08;;;15.10;58.40;;;;;;5042097;28;20018;-69
2023/01/20 08:05:13;;;;;;;1.10;1.00;;;15.00;58.50;;;;;;5041837;28;20021;-69
2023/01/20 08:07:39;;;;;;;1.15;1.00;;;15.00;59.20;;;;;;5040713;28;20037;-68
2023/01/20 08:10:05;;;;;;;1.10;0.95;;;15.00;58.70;;;;;;5041933;28;20026;-69
2023/01/20 08:12:31;;;;;;;1.08;0.93;;;15.00;58.70;;;;;;5041923;28;20348;-68
2023/01/20 08:14:57;;;;;;;1.60;1.25;;;15.00;59.30;;;;;;5041870;28;20088;-70
2023/01/20 08:17:22;;;;;;;1.30;1.20;;;15.00;58.80;;;;;;5041896;28;20080;-69
2023/01/20 08:19:48;;;;;;;2.05;1.10;;;15.00;58.80;;;;;;5041717;28;20029;-71
2023/01/20 08:22:14;;;;;;;1.92;1.25;;;15.00;58.90;;;;;;5056975;28;20451;-69
2023/01/20 08:24:40;;;;;;;0.90;0.90;;;15.00;58.80;;;;;;5041714;28;20029;-69
2023/01/20 08:27:06;;;;;;;2.53;1.48;;;15.00;59.40;;;;;;5041603;28;20352;-70
2023/01/20 08:29:32;;;;;;;1.40;1.15;;;14.90;58.80;;;;;;5041620;28;20313;-69
2023/01/20 08:32:01;;;;;;;1.60;1.00;;;14.90;58.80;;;;;;5041557;28;20329;-68
2023/01/20 08:34:27;;;;;;;1.40;1.30;;;14.90;58.80;;;;;;5041571;28;20029;-68
2023/01/20 08:36:56;;;;;;;1.30;1.20;;;14.90;58.80;;;;;;5041530;28;20081;-70
2023/01/20 08:39:22;;;;;;;1.98;1.30;;;14.90;58.90;;;;;;5041229;28;20337;-69
2023/01/20 08:41:48;;;;;;;1.13;1.02;;;15.00;59.10;;;;;;5040716;28;20206;-70
2023/01/20 08:44:16;;;;;;;2.00;1.20;;;15.00;59.10;;;;;;5041451;28;20055;-70
2023/01/20 08:46:43;;;;;;;1.60;1.08;;;15.10;58.70;;;;;;5041244;28;20085;-69
2023/01/20 08:49:14;;;;;;;0.95;0.95;;;15.10;58.60;;;;;;5041245;28;20345;-70
2023/01/20 08:51:41;;;;;;;1.30;1.10;;;15.20;58.50;;;;;;5041225;28;20028;-70
2023/01/20 08:54:07;;;;;;;2.15;0.95;;;15.30;58.40;;;;;;5041213;28;20044;-70
2023/01/20 08:56:34;;;;;;;1.38;1.05;;;15.30;58.20;;;;;;5041131;28;20026;-69
2023/01/20 08:59:01;;;;;;;1.30;1.08;;;15.30;58.20;;;;;;5056285;28;20025;-69
2023/01/20 09:01:28;;;;;;;1.00;0.90;;;15.40;58.10;;;;;;5041052;28;20021;-69
2023/01/20 09:03:55;;;;;;;1.30;1.15;;;15.40;58.00;;;;;;5039656;28;20253;-69
2023/01/20 09:06:21;;;;;;;1.35;1.10;;;15.40;58.00;;;;;;5040415;28;20056;-69
2023/01/20 09:08:48;;;;;;;1.75;1.35;;;15.40;57.80;;;;;;5040939;28;20033;-70
2023/01/20 09:11:17;;;;;;;0.95;0.93;;;15.40;57.90;;;;;;5040850;28;20036;-69
2023/01/20 09:13:43;;;;;;;1.15;0.80;;;15.30;57.80;;;;;;5040845;28;20026;-69
2023/01/20 09:16:13;;;;;;;1.55;1.10;;;15.30;58.00;;;;;;5040837;28;20035;-69
2023/01/20 09:18:38;;;;;;;1.42;1.10;;;15.20;58.00;;;;;;5039492;28;20100;-68
2023/01/20 09:21:05;;;;;;;1.38;1.10;;;15.20;58.10;;;;;;5040767;28;20399;-68
2023/01/20 09:23:33;;;;;;;1.35;0.90;;;15.10;58.10;;;;;;5040748;28;20045;-69
2023/01/20 09:25:59;;;;;;;1.10;0.93;;;15.10;58.30;;;;;;5040781;28;20058;-69
2023/01/20 09:28:25;;;;;;;1.17;1.08;;;15.10;58.30;;;;;;5040692;28;20206;-68
2023/01/20 09:30:59;;;;;;;1.33;1.10;;;15.10;58.40;;;;;;5040468;28;20025;-68
2023/01/20 09:33:25;;;;;;;1.35;1.25;;;15.10;58.30;;;;;;5040497;28;20033;-69
2023/01/20 09:35:58;;;;;;;1.35;1.00;;;15.00;58.30;;;;;;5040518;28;20349;-69
2023/01/20 09:45:21;;;;;;;2.00;1.27;;;15.00;58.40;;;;;;5040359;28;20060;-68
2023/01/20 09:47:48;;;;;;;1.60;1.30;;;15.00;58.60;;;;;;4998463;28;20101;-70
2023/01/20 09:53:42;;;;;;;1.13;1.02;;;14.90;58.50;;;;;;5033511;28;20044;-69
2023/01/20 09:56:16;;;;;;;1.55;0.85;;;15.00;58.50;;;;;;5040174;28;20201;-68
2023/01/20 09:59:24;;;;;;;0.75;0.75;;;15.00;58.50;;;;;;5040180;28;20029;-67
2023/01/20 10:02:03;;;;;;;1.75;1.38;;;15.00;58.50;;;;;;5031166;28;20064;-68
2023/01/20 10:04:56;;;;;;;0.95;0.80;;;15.00;58.60;;;;;;5040067;28;20021;-68
2023/01/20 10:07:40;;;;;;;0.93;0.93;;;15.10;58.80;;;;;;5038329;28;20052;-67
2023/01/20 10:10:27;;;;;;;1.83;1.23;;;15.10;58.50;;;;;;5040122;28;20025;-68
2023/01/20 10:13:07;;;;;;;2.38;1.50;;;15.20;58.30;;;;;;5040341;28;20074;-70
2023/01/20 10:15:36;;;;;;;2.13;1.23;;;15.30;58.20;;;;;;5040216;28;20026;-68
2023/01/20 10:18:13;;;;;;;;;;;15.40;58.00;;;;;;5040526;28;20309;-70
2023/01/20 10:20:54;;;;;;;2.72;1.33;;;15.40;57.80;;;;;;5040158;28;19940;-70
2023/01/20 10:23:47;;;;;;;1.55;1.38;;;15.40;57.70;;;;;;5040233;28;20029;-70
2023/01/20 10:26:28;;;;;;;1.30;1.10;;;15.50;57.50;;;;;;5040098;28;20345;-69
2023/01/20 10:29:21;;;;;;;1.10;1.00;;;15.50;57.60;;;;;;5039954;28;20048;-69
2023/01/20 10:31:57;;;;;;;1.20;1.10;;;15.50;57.50;;;;;;5040021;28;20033;-69
2023/01/20 10:34:52;;;;;;;2.75;1.02;;;15.40;57.60;;;;;;5039963;28;20030;-69
2023/01/20 10:37:18;;;;;;;1.05;0.95;;;15.30;57.70;;;;;;5037777;28;20069;-70
2023/01/20 10:39:52;;;;;;;1.15;1.10;;;15.30;57.90;;;;;;5039753;28;20396;-69
2023/01/20 10:42:19;;;;;;;1.15;1.02;;;15.20;57.90;;;;;;5039886;28;20026;-70
2023/01/20 10:44:48;;;;;;;0.93;0.90;;;15.20;58.00;;;;;;5055069;28;20022;-69
2023/01/20 10:47:41;;;;;;;2.10;1.20;;;15.20;58.20;;;;;;5039721;28;20021;-70
2023/01/20 10:50:34;;;;;;;1.70;1.40;;;15.10;58.10;;;;;;5037640;28;20038;-68
2023/01/20 10:53:18;;;;;;;1.10;0.88;;;15.10;58.20;;;;;;5039814;28;20089;-69
2023/01/20 10:55:53;;;;;;;1.27;1.00;;;15.10;58.20;;;;;;5039708;28;20041;-68
2023/01/20 10:58:30;;;;;;;1.27;1.05;;;15.10;58.20;;;;;;5039610;28;20026;-69
2023/01/20 11:00:58;;;;;;;1.70;1.55;;;15.10;58.20;;;;;;5055081;28;20025;-69
2023/01/20 11:03:25;;;;;;;1.20;1.10;;;15.00;58.10;;;;;;5040120;28;20222;-69
2023/01/20 11:05:51;;;;;;;1.05;0.88;;;15.00;58.30;;;;;;5043119;28;20045;-69
2023/01/20 11:08:21;;;;;;;1.13;1.00;;;15.00;58.40;;;;;;5043297;28;20029;-68
2023/01/20 11:10:53;;;;;;;1.45;1.20;;;15.00;59.10;;;;;;5043405;28;20021;-68
2023/01/20 11:13:19;;;;;;;1.60;1.50;;;15.00;58.40;;;;;;5043421;28;20329;-69
2023/01/20 11:15:52;;;;;;;1.38;1.27;;;15.00;58.50;;;;;;5043316;28;20040;-69
2023/01/20 11:18:21;;;;;;;1.25;0.93;;;15.00;58.40;;;;;;5043188;28;20052;-70
2023/01/20 11:20:48;;;;;;;2.58;0.95;;;15.10;58.60;;;;;;5042928;28;20032;-71
2023/01/20 11:23:39;;;;;;;1.25;1.10;;;15.10;58.50;;;;;;5042976;28;20021;-69
2023/01/20 11:26:16;;;;;;;1.50;1.33;;;15.20;58.50;;;;;;5037728;28;20288;-69
2023/01/20 11:28:54;;;;;;;1.08;0.98;;;15.30;58.30;;;;;;5042921;28;20068;-70
2023/01/20 11:31:31;;;;;;;1.02;0.93;;;15.40;58.30;;;;;;5042859;28;20044;-68
2023/01/20 11:34:22;;;;;;;1.30;0.98;;;15.40;57.90;;;;;;5042884;28;20063;-70
2023/01/20 11:36:50;;;;;;;1.13;1.02;;;15.50;57.60;;;;;;5035176;28;20099;-68
2023/01/20 11:39:42;;;;;;;1.83;1.17;;;15.50;57.60;;;;;;5042662;28;20226;-68
2023/01/20 11:42:22;;;;;;;0.77;0.77;;;15.60;57.40;;;;;;5040484;28;20044;-68
2023/01/20 11:44:51;;;;;;;1.45;1.00;;;15.60;57.40;;;;;;5042562;28;20089;-71
2023/01/20 11:47:28;;;;;;;1.55;1.38;;;15.50;57.40;;;;;;5042582;28;20092;-70
2023/01/20 11:50:03;;;;;;;1.58;0.90;;;15.50;57.40;;;;;;5042588;28;20041;-71
2023/01/20 11:52:33;;;;;;;0.98;0.95;;;15.40;57.70;;;;;;5042441;28;20333;-69
2023/01/20 11:55:09;;;;;;;1.67;0.90;;;15.40;57.80;;;;;;5042569;28;20092;-67
2023/01/20 11:57:54;;;;;;;0.90;0.88;;;15.30;57.80;;;;;;5042317;28;20032;-67
2023/01/20 12:00:37;;;;;;;1.55;1.23;;;15.30;58.00;;;;;;5042269;28;20021;-69
2023/01/20 12:03:12;;;;;;;1.40;1.08;;;15.20;58.00;;;;;;5042256;28;20026;-70
2023/01/20 12:05:57;;;;;;;0.93;0.93;;;15.20;58.10;;;;;;5042067;28;20345;-67
2023/01/20 12:08:32;;;;;;;1.20;1.00;;;15.10;58.20;;;;;;5042134;28;20025;-69
2023/01/20 12:11:02;;;;;;;1.00;0.90;;;15.10;58.80;;;;;;5042083;28;20040;-69
2023/01/20 12:16:33;;;;;;;1.60;1.25;;;15.10;58.20;;;;;;5042048;28;20072;-68
2023/01/20 12:19:08;;;;;;;1.73;1.13;;;15.00;58.10;;;;;;5041874;28;20040;-69
2023/01/20 12:21:40;;;;;;;1.92;1.08;;;15.00;58.00;;;;;;5042029;28;20026;-68
2023/01/20 12:24:21;;;;;;;1.75;0.95;;;15.00;58.30;;;;;;5042101;28;20029;-68
2023/01/20 12:26:48;;;;;;;1.50;1.20;;;15.00;58.30;;;;;;5041993;28;20052;-69
2023/01/20 12:29:17;;;;;;;0.90;0.70;;;15.00;58.40;;;;;;5041800;28;20048;-68
2023/01/20 12:31:44;;;;;;;;;;;15.10;58.40;;;;;;5042160;28;20049;-68
2023/01/20 12:34:11;;;;;;;1.38;1.02;;;15.20;58.30;;;;;;5041769;28;19927;-69
2023/01/20 12:36:46;;;;;;;0.90;0.80;;;15.30;58.20;;;;;;5040354;28;20256;-70
2023/01/20 12:39:33;;;;;;;1.27;1.17;;;15.40;58.10;;;;;;5041607;28;20048;-70
2023/01/20 12:42:17;;;;;;;1.65;1.30;;;15.40;58.00;;;;;;5041594;28;20025;-69
2023/01/20 12:44:48;;;;;;;0.85;0.85;;;15.50;57.90;;;;;;5041606;28;20067;-68
2023/01/20 12:47:33;;;;;;;1.20;1.00;;;15.50;57.70;;;;;;5041552;28;20029;-68
2023/01/20 12:50:22;;;;;;;0.98;0.88;;;15.50;57.60;;;;;;5041523;28;20025;-68
2023/01/20 12:52:57;;;;;;;1.05;0.90;;;15.50;57.50;;;;;;5041479;28;20056;-68
2023/01/20 12:55:51;;;;;;;1.20;1.10;;;15.50;57.70;;;;;;5041372;28;20030;-69
2023/01/20 12:58:38;;;;;;;1.20;1.08;;;15.40;57.70;;;;;;5041301;28;20045;-69
2023/01/20 13:01:16;;;;;;;1.00;0.90;;;15.30;57.80;;;;;;5041202;28;20033;-67
2023/01/20 13:03:45;;;;;;;1.70;1.17;;;15.30;57.80;;;;;;5041121;28;20029;-69
2023/01/20 13:06:29;;;;;;;1.15;0.85;;;15.20;58.10;;;;;;5040928;28;20033;-70
2023/01/20 13:09:06;;;;;;;1.23;1.00;;;15.20;58.00;;;;;;5040998;28;20059;-69
2023/01/20 13:12:09;;;;;;;1.10;1.00;;;15.20;58.10;;;;;;5040899;28;20305;-69
2023/01/20 13:14:39;;;;;;;1.42;1.02;;;15.10;58.10;;;;;;5040933;28;20032;-68
2023/01/20 13:17:38;;;;;;;1.25;1.10;;;15.10;58.10;;;;;;5041089;28;20028;-68
2023/01/20 13:20:29;;;;;;;1.52;1.17;;;15.10;58.20;;;;;;5040777;28;20083;-67